createdAt,value
2019-04-24T00:00:09.329Z,20.45
2019-04-24T00:02:32.039Z,22.90
2019-04-24T00:05:14.592Z,23.52
2019-04-24T00:07:23.496Z,21.25
2019-04-24T00:10:04.233Z,23.98
2019-04-24T00:12:45.309Z,22.45
2019-04-24T00:15:37.302Z,22.02
2019-04-24T00:18:18.359Z,21.48
2019-04-24T00:20:35.373Z,23.07
2019-04-24T00:25:40.684Z,21.37
2019-04-24T00:28:04.530Z,24.98
2019-04-24T00:33:15.615Z,21.12
2019-04-24T00:35:59.288Z,22.45
2019-04-24T00:38:25.231Z,23.10
2019-04-24T00:41:04.982Z,22.75
2019-04-24T00:45:56.624Z,22.60
2019-04-24T00:48:38.207Z,21.95
2019-04-24T00:51:06.706Z,23.50
2019-04-24T00:56:08.052Z,22.42
2019-04-24T00:58:32.065Z,22.93
2019-04-24T01:01:25.738Z,23.75
2019-04-24T01:04:01.802Z,23.62
2019-04-24T01:06:34.954Z,24.98
2019-04-24T01:09:21.213Z,24.12
2019-04-24T01:11:31.509Z,21.55
2019-04-24T01:16:56.126Z,23.50
2019-04-24T01:19:10.468Z,23.40
2019-04-24T01:21:49.791Z,22.82
2019-04-24T01:29:16.393Z,24.57
2019-04-24T01:32:01.282Z,23.42
2019-04-24T01:39:58.833Z,23.50
2019-04-24T01:42:34.350Z,25.35
2019-04-24T01:50:09.863Z,23.92
2019-04-24T01:52:54.453Z,27.17
2019-04-24T01:55:08.798Z,25.95
2019-04-24T01:57:43.216Z,24.25
2019-04-24T02:00:24.171Z,27.22
2019-04-24T02:02:52.200Z,26.82
2019-04-24T02:08:11.542Z,24.67
2019-04-24T02:11:01.250Z,27.32
2019-04-24T02:13:28.241Z,27.48
2019-04-24T02:18:32.948Z,26.17
2019-04-24T02:20:54.375Z,25.68
2019-04-24T02:28:40.724Z,27.60
2019-04-24T02:36:38.269Z,28.67
2019-04-24T02:39:38.769Z,27.37
2019-04-24T02:57:10.134Z,27.90
2019-04-24T03:02:09.810Z,29.23
2019-04-24T03:04:37.256Z,27.58
2019-04-24T03:15:29.212Z,28.65
2019-04-24T03:18:00.105Z,27.73
2019-04-24T03:20:23.156Z,31.35
2019-04-24T03:25:39.857Z,27.82
2019-04-24T03:54:02.539Z,28.38
2019-04-24T03:56:28.649Z,29.82
2019-04-24T04:07:31.086Z,28.15
2019-04-24T04:12:52.588Z,29.55
2019-04-24T04:15:02.406Z,30.40
2019-04-24T04:17:49.448Z,27.95
2019-04-24T04:20:16.919Z,29.27
2019-04-24T04:25:27.022Z,28.80
2019-04-24T04:31:18.918Z,28.25
2019-04-24T04:36:06.024Z,28.65
2019-04-24T04:41:22.926Z,28.02
2019-04-24T04:43:56.477Z,30.12
2019-04-24T04:49:07.849Z,30.25
2019-04-24T04:54:42.686Z,29.98
2019-04-24T04:59:21.320Z,33.88
2019-04-24T05:22:20.529Z,33.75
2019-04-24T05:24:53.852Z,34.10
2019-04-24T05:27:24.799Z,33.00
2019-04-24T05:29:55.090Z,32.03
2019-04-24T05:33:13.990Z,32.75
2019-04-24T05:35:40.354Z,31.68
2019-04-24T05:38:04.643Z,30.48
2019-04-24T05:40:48.211Z,31.87
2019-04-24T05:48:21.425Z,30.85
2019-04-24T05:51:06.884Z,29.72
2019-04-24T05:58:58.086Z,29.02
2019-04-24T06:01:49.159Z,31.20
2019-04-24T06:04:27.686Z,31.52
2019-04-24T06:07:00.500Z,31.40
2019-04-24T06:12:32.580Z,31.50
2019-04-24T06:17:47.865Z,29.27
2019-04-24T06:22:52.230Z,30.30
2019-04-24T06:25:43.059Z,31.25
2019-04-24T06:30:44.920Z,29.27
2019-04-24T06:35:54.447Z,30.48
2019-04-24T06:41:24.260Z,29.15
2019-04-24T06:43:53.802Z,28.87
2019-04-24T06:46:33.092Z,30.12
2019-04-24T06:51:24.930Z,29.82
2019-04-24T06:57:16.008Z,28.73
2019-04-24T06:59:16.621Z,30.87
2019-04-24T07:01:49.025Z,32.70
2019-04-24T07:05:08.721Z,30.20
2019-04-24T07:07:33.814Z,30.37
2019-04-24T07:13:25.625Z,26.90
2019-04-24T07:18:27.495Z,31.70
2019-04-24T07:23:41.168Z,30.40
2019-04-24T07:28:42.396Z,30.07
2019-04-24T07:31:41.195Z,30.27
2019-04-24T07:36:52.833Z,31.40
2019-04-24T07:44:29.161Z,28.90
2019-04-24T07:47:09.219Z,29.70
2019-04-24T07:49:52.851Z,28.20
2019-04-24T07:52:13.553Z,28.50
2019-04-24T07:57:27.105Z,33.00
2019-04-24T08:05:18.101Z,30.90
2019-04-24T08:10:44.031Z,33.03
2019-04-24T08:15:45.227Z,30.83
2019-04-24T08:18:15.951Z,28.10
2019-04-24T08:23:29.094Z,29.00
2019-04-24T08:25:52.337Z,29.83
2019-04-24T08:28:22.948Z,32.50
2019-04-24T08:31:21.111Z,31.87
2019-04-24T08:36:29.629Z,28.63
2019-04-24T08:39:23.530Z,28.57
2019-04-24T08:41:58.464Z,30.90
2019-04-24T08:44:05.234Z,28.43
2019-04-24T08:47:04.107Z,28.93
2019-04-24T08:49:42.263Z,26.77
2019-04-24T08:52:13.514Z,26.00
2019-04-24T08:54:30.210Z,28.13
2019-04-24T09:02:54.773Z,29.97
2019-04-24T09:05:07.947Z,29.90
2019-04-24T09:08:05.785Z,28.40
2019-04-24T09:13:17.354Z,27.90
2019-04-24T09:16:00.046Z,32.00
2019-04-24T09:18:13.654Z,28.07
2019-04-24T09:20:49.199Z,30.13
2019-04-24T09:26:42.530Z,27.57
2019-04-24T09:31:34.286Z,25.47
2019-04-24T09:33:54.932Z,24.80
2019-04-24T09:39:38.724Z,26.83
2019-04-24T09:42:17.098Z,22.40
2019-04-24T09:44:31.161Z,23.90
2019-04-24T09:46:55.644Z,27.13
2019-04-24T09:49:26.257Z,26.57
2019-04-24T09:54:54.954Z,24.60
2019-04-24T09:59:56.999Z,24.00
2019-04-24T10:07:57.345Z,24.13
2019-04-24T10:10:24.641Z,24.60
2019-04-24T10:12:54.483Z,25.07
2019-04-24T10:15:34.645Z,22.40
2019-04-24T10:18:04.193Z,20.97
2019-04-24T10:20:42.418Z,22.53
2019-04-24T10:23:24.613Z,19.90
2019-04-24T10:25:52.177Z,21.60
2019-04-24T10:31:44.886Z,18.90
2019-04-24T10:34:05.683Z,21.03
2019-04-24T10:36:59.319Z,20.43
2019-04-24T10:39:55.594Z,19.57
2019-04-24T10:42:05.064Z,20.93
2019-04-24T10:45:07.135Z,21.30
2019-04-24T10:50:05.340Z,21.03
2019-04-24T10:55:41.649Z,20.77
2019-04-24T10:57:59.733Z,20.10
2019-04-24T11:00:34.286Z,20.20
2019-04-24T11:03:05.239Z,21.20
2019-04-24T11:08:37.727Z,22.77
2019-04-24T11:11:09.835Z,20.20
2019-04-24T11:14:11.689Z,21.83
2019-04-24T11:17:14.295Z,22.10
2019-04-24T11:19:43.328Z,22.23
2019-04-24T11:22:12.705Z,21.77
2019-04-24T11:24:51.584Z,21.33
2019-04-24T11:30:05.009Z,20.63
2019-04-24T11:32:45.974Z,22.67
2019-04-24T11:43:09.762Z,22.40
2019-04-24T11:46:48.621Z,22.43
2019-04-24T11:49:11.038Z,22.90
2019-04-24T11:51:53.827Z,24.57
2019-04-24T11:54:15.339Z,24.10
2019-04-24T11:57:27.823Z,21.97
2019-04-24T11:59:32.234Z,23.13
2019-04-24T12:05:21.555Z,24.10
2019-04-24T12:10:20.879Z,21.23
2019-04-24T12:13:10.024Z,22.53
2019-04-24T12:18:42.351Z,20.23
2019-04-24T12:23:48.397Z,22.60
2019-04-24T12:33:47.888Z,21.50
2019-04-24T12:36:23.100Z,20.30
2019-04-24T12:41:36.105Z,21.27
2019-04-24T12:49:20.704Z,22.93
2019-04-24T12:51:47.829Z,19.97
2019-04-24T12:59:48.473Z,20.17
2019-04-24T13:02:44.310Z,18.83
2019-04-24T13:05:23.208Z,20.23
2019-04-24T13:10:23.669Z,22.73
2019-04-24T13:13:24.598Z,19.60
2019-04-24T13:15:54.051Z,19.37
2019-04-24T13:20:30.080Z,21.03
2019-04-24T13:23:04.961Z,19.83
2019-04-24T13:26:07.555Z,19.63
2019-04-24T13:29:02.939Z,19.70
2019-04-24T13:31:24.192Z,19.63
2019-04-24T13:33:54.669Z,18.97
2019-04-24T13:36:46.400Z,19.07
2019-04-24T13:41:30.499Z,20.83
2019-04-24T13:46:18.695Z,20.00
2019-04-24T13:51:25.780Z,18.40
2019-04-24T13:56:26.475Z,16.50
2019-04-24T13:58:58.673Z,18.13
2019-04-24T14:19:32.355Z,19.50
2019-04-24T14:22:04.668Z,17.83
2019-04-24T14:27:06.632Z,18.80
2019-04-24T14:29:35.114Z,20.20
2019-04-24T14:37:09.914Z,19.67
2019-04-24T14:39:47.360Z,18.57
2019-04-24T14:42:14.962Z,19.23
2019-04-24T14:45:00.812Z,21.20
2019-04-24T14:47:27.671Z,19.73
2019-04-24T14:50:08.762Z,19.00
2019-04-24T14:52:34.911Z,18.13
2019-04-24T14:55:14.481Z,19.20
2019-04-24T14:57:31.518Z,19.83
2019-04-24T15:02:40.987Z,21.83
2019-04-24T15:05:13.137Z,18.60
2019-04-24T15:07:38.599Z,18.70
2019-04-24T15:10:08.287Z,18.27
2019-04-24T15:12:54.795Z,18.97
2019-04-24T15:15:13.545Z,18.53
2019-04-24T15:18:01.259Z,19.83
2019-04-24T15:20:22.086Z,17.87
2019-04-24T15:25:36.582Z,18.37
2019-04-24T15:28:07.533Z,19.13
2019-04-24T15:30:24.019Z,18.20
2019-04-24T15:33:00.008Z,16.60
2019-04-24T15:35:29.210Z,18.43
2019-04-24T15:37:57.578Z,17.30
2019-04-24T15:40:41.818Z,18.30
2019-04-24T15:43:18.045Z,17.23
2019-04-24T15:45:24.834Z,18.63
2019-04-24T15:50:30.764Z,19.33
2019-04-24T15:52:29.699Z,17.70
2019-04-24T15:54:58.534Z,17.90
2019-04-24T15:57:27.644Z,17.93
2019-04-24T16:00:19.561Z,17.20
2019-04-24T16:03:06.052Z,17.97
2019-04-24T16:04:57.891Z,18.27
2019-04-24T16:07:32.632Z,20.20
2019-04-24T16:10:08.135Z,17.57
2019-04-24T16:12:37.181Z,16.93
2019-04-24T16:15:41.958Z,17.57
2019-04-24T16:18:12.470Z,19.43
2019-04-24T16:20:40.882Z,19.40
2019-04-24T16:23:12.739Z,19.20
2019-04-24T16:25:36.382Z,18.07
2019-04-24T16:28:18.746Z,19.40
2019-04-24T16:30:38.682Z,18.97
2019-04-24T16:33:19.575Z,18.70
2019-04-24T16:35:53.544Z,18.07
2019-04-24T16:38:18.316Z,19.40
2019-04-24T16:40:51.000Z,19.33
2019-04-24T16:43:23.263Z,18.37
2019-04-24T16:46:36.961Z,18.40
2019-04-24T16:55:59.597Z,18.57
2019-04-24T16:58:39.635Z,19.30
2019-04-24T17:04:14.924Z,20.40
2019-04-24T17:06:22.089Z,19.73
2019-04-24T17:08:53.768Z,19.07
2019-04-24T17:11:20.659Z,18.27
2019-04-24T17:13:55.502Z,19.37
2019-04-24T17:19:11.897Z,17.87
2019-04-24T17:26:28.893Z,18.77
2019-04-24T17:29:14.776Z,18.17
2019-04-24T17:34:09.713Z,17.27
2019-04-24T17:36:22.311Z,15.83
2019-04-24T17:39:02.094Z,18.80
2019-04-24T17:41:39.194Z,16.90
2019-04-24T17:44:44.894Z,17.17
2019-04-24T17:57:10.362Z,14.93
2019-04-24T17:59:06.103Z,17.10
2019-04-24T18:01:35.315Z,16.67
2019-04-24T18:04:04.417Z,16.33
2019-04-24T18:06:33.512Z,16.93
2019-04-24T18:09:03.237Z,16.30
2019-04-24T18:11:32.513Z,16.83
2019-04-24T18:14:02.019Z,14.33
2019-04-24T18:16:31.601Z,15.10
2019-04-24T18:19:02.724Z,16.77
2019-04-24T18:21:32.338Z,16.17
2019-04-24T18:24:01.327Z,16.80
2019-04-24T18:26:47.698Z,16.13
2019-04-24T18:29:16.458Z,18.17
2019-04-24T18:31:45.270Z,16.40
2019-04-24T18:34:15.087Z,15.40
2019-04-24T18:36:44.363Z,20.13
2019-04-24T18:39:13.224Z,16.20
2019-04-24T18:41:42.222Z,16.83
2019-04-24T18:44:12.292Z,16.87
2019-04-24T18:46:41.794Z,17.60
2019-04-24T18:49:12.540Z,18.47
2019-04-24T18:51:41.943Z,17.87
2019-04-24T18:54:12.641Z,18.60
2019-04-24T18:56:41.337Z,15.40
2019-04-24T18:59:10.407Z,16.37
2019-04-24T19:01:39.185Z,14.60
2019-04-24T19:04:08.384Z,16.73
2019-04-24T19:06:37.312Z,17.53
2019-04-24T19:09:07.478Z,16.50
2019-04-24T19:11:36.519Z,16.57
2019-04-24T19:14:05.330Z,17.57
2019-04-24T19:16:34.100Z,15.73
2019-04-24T19:19:03.196Z,15.50
2019-04-24T19:21:32.030Z,15.83
2019-04-24T19:24:00.833Z,15.40
2019-04-24T19:26:31.451Z,15.90
2019-04-24T19:29:00.319Z,16.37
2019-04-24T19:31:29.165Z,15.80
2019-04-24T19:33:58.231Z,15.83
2019-04-24T19:36:26.971Z,14.73
2019-04-24T19:38:55.735Z,15.57
2019-04-24T19:41:24.451Z,16.07
2019-04-24T19:43:53.216Z,16.10
2019-04-24T19:46:22.390Z,15.20
2019-04-24T19:48:52.163Z,16.00
2019-04-24T19:51:21.119Z,17.73
2019-04-24T19:53:51.258Z,15.07
2019-04-24T19:56:20.607Z,16.87
2019-04-24T19:58:49.386Z,16.00
2019-04-24T20:01:18.275Z,16.40
2019-04-24T20:03:47.030Z,19.47
2019-04-24T20:06:16.296Z,13.70
2019-04-24T20:08:45.170Z,15.10
2019-04-24T20:11:20.499Z,14.93
2019-04-24T20:13:49.280Z,18.23
2019-04-24T20:16:18.707Z,13.80
2019-04-24T20:18:47.751Z,13.17
2019-04-24T20:21:17.152Z,15.77
2019-04-24T20:23:45.972Z,17.43
2019-04-24T20:26:15.386Z,14.03
2019-04-24T20:28:44.203Z,13.67
2019-04-24T20:31:14.214Z,15.40
2019-04-24T20:33:43.069Z,15.83
2019-04-24T20:36:11.922Z,17.20
2019-04-24T20:38:42.055Z,13.00
2019-04-24T20:41:12.020Z,14.00
2019-04-24T20:43:41.697Z,13.20
2019-04-24T20:46:11.417Z,13.90
2019-04-24T20:48:40.300Z,12.67
2019-04-24T20:51:09.123Z,20.20
2019-04-24T20:53:40.278Z,12.47
2019-04-24T20:56:08.672Z,14.33
2019-04-24T20:58:37.470Z,13.07
2019-04-24T21:01:08.049Z,12.73
2019-04-24T21:03:36.819Z,13.50
2019-04-24T21:06:11.627Z,14.87
2019-04-24T21:08:47.551Z,13.70
2019-04-24T21:11:16.380Z,15.63
2019-04-24T21:13:45.208Z,12.87
2019-04-24T21:16:14.083Z,17.80
2019-04-24T21:18:42.816Z,12.30
2019-04-24T21:21:11.767Z,18.77
2019-04-24T21:23:53.219Z,11.93
2019-04-24T21:26:11.060Z,15.40
2019-04-24T21:28:39.834Z,14.20
2019-04-24T21:31:08.847Z,24.43
2019-04-24T21:33:37.610Z,15.23
2019-04-24T21:36:06.318Z,13.63
2019-04-24T21:38:35.285Z,17.53
2019-04-24T21:41:04.035Z,16.93
2019-04-24T21:43:35.566Z,12.00
2019-04-24T21:46:03.384Z,14.70
2019-04-24T21:48:32.868Z,15.93
2019-04-24T21:51:01.620Z,14.43
2019-04-24T21:53:32.426Z,15.53
2019-04-24T21:56:00.844Z,22.07
2019-04-24T21:58:32.008Z,11.97
2019-04-24T22:01:37.655Z,14.03
2019-04-24T22:04:32.047Z,13.60
2019-04-24T22:07:06.287Z,16.40
2019-04-24T22:09:35.687Z,14.87
2019-04-24T22:12:04.776Z,16.90
2019-04-24T22:14:33.895Z,12.17
2019-04-24T22:17:02.914Z,17.43
2019-04-24T22:19:31.803Z,12.47
2019-04-24T22:22:06.433Z,21.10
2019-04-24T22:25:09.603Z,12.17
2019-04-24T22:27:40.391Z,15.37
2019-04-24T22:30:18.175Z,17.10
2019-04-24T22:32:46.955Z,13.53
2019-04-24T22:35:23.436Z,12.83
2019-04-24T22:37:52.370Z,14.80
2019-04-24T22:40:27.819Z,18.00
2019-04-24T22:42:56.880Z,10.70
2019-04-24T22:45:25.767Z,11.40
2019-04-24T22:47:54.527Z,11.27
2019-04-24T22:50:23.364Z,14.93
2019-04-24T22:52:52.106Z,12.57
2019-04-24T22:55:21.991Z,11.57
2019-04-24T22:57:50.835Z,11.33
2019-04-24T23:00:25.033Z,11.77
2019-04-24T23:02:54.044Z,14.30
2019-04-24T23:05:23.207Z,14.97
2019-04-24T23:07:52.042Z,16.23
2019-04-24T23:10:33.492Z,17.80
2019-04-24T23:12:52.192Z,10.33
2019-04-24T23:15:21.537Z,13.97
2019-04-24T23:17:50.395Z,12.10
2019-04-24T23:20:21.682Z,16.60
2019-04-24T23:23:07.986Z,12.13
2019-04-24T23:25:42.214Z,18.40
2019-04-24T23:28:16.285Z,19.30
2019-04-24T23:31:11.236Z,10.57
2019-04-24T23:33:44.785Z,12.43
2019-04-24T23:36:14.054Z,12.63
2019-04-24T23:38:42.973Z,11.97
2019-04-24T23:41:13.048Z,15.27
2019-04-24T23:43:42.577Z,12.70
2019-04-24T23:46:11.846Z,15.20
2019-04-24T23:48:41.564Z,15.37
2019-04-24T23:51:11.190Z,12.40
2019-04-24T23:54:00.454Z,15.70
2019-04-24T23:56:29.388Z,11.27
2019-04-24T23:58:58.157Z,13.43
